createdAt,value
2017-12-21T00:00:41.366Z,27.00
2017-12-21T00:03:08.114Z,30.07
2017-12-21T00:05:34.960Z,29.37
2017-12-21T00:08:01.804Z,30.70
2017-12-21T00:10:28.646Z,32.00
2017-12-21T00:12:55.505Z,27.87
2017-12-21T00:15:22.252Z,32.27
2017-12-21T00:17:49.083Z,28.70
2017-12-21T00:20:15.853Z,30.60
2017-12-21T00:22:42.617Z,28.23
2017-12-21T00:25:09.412Z,28.20
2017-12-21T00:27:36.160Z,27.33
2017-12-21T00:30:02.970Z,27.50
2017-12-21T00:32:29.743Z,26.10
2017-12-21T00:34:56.547Z,25.30
2017-12-21T00:37:23.369Z,23.60
2017-12-21T00:39:50.217Z,25.33
2017-12-21T00:42:17.029Z,26.63
2017-12-21T00:44:43.900Z,25.23
2017-12-21T00:47:10.703Z,22.70
2017-12-21T00:49:37.511Z,27.87
2017-12-21T00:52:04.287Z,25.20
2017-12-21T00:54:31.106Z,29.10
2017-12-21T00:56:57.886Z,25.83
2017-12-21T00:59:24.686Z,28.43
2017-12-21T01:01:51.442Z,29.60
2017-12-21T01:04:18.243Z,25.90
2017-12-21T01:06:45.033Z,26.73
2017-12-21T01:09:11.922Z,27.10
2017-12-21T01:11:38.702Z,29.70
2017-12-21T01:14:05.513Z,32.87
2017-12-21T01:16:32.297Z,27.30
2017-12-21T01:18:59.046Z,30.73
2017-12-21T01:21:25.834Z,30.83
2017-12-21T01:23:52.614Z,29.00
2017-12-21T01:26:19.390Z,31.93
2017-12-21T01:28:46.202Z,28.73
2017-12-21T01:31:13.030Z,26.50
2017-12-21T01:33:39.843Z,32.40
2017-12-21T01:36:06.624Z,29.00
2017-12-21T01:38:33.440Z,29.00
2017-12-21T01:41:00.289Z,28.93
2017-12-21T01:43:27.142Z,26.50
2017-12-21T01:45:53.961Z,28.83
2017-12-21T01:48:20.768Z,26.70
2017-12-21T01:50:47.582Z,25.40
2017-12-21T01:53:14.409Z,27.20
2017-12-21T01:55:41.217Z,26.90
2017-12-21T01:58:08.018Z,26.20
2017-12-21T02:00:34.802Z,25.90
2017-12-21T02:03:01.576Z,26.50
2017-12-21T02:05:28.378Z,25.43
2017-12-21T02:07:55.189Z,29.03
2017-12-21T02:10:21.972Z,30.40
2017-12-21T02:12:48.732Z,27.77
2017-12-21T02:15:15.526Z,28.37
2017-12-21T02:17:42.325Z,25.37
2017-12-21T02:20:09.121Z,26.73
2017-12-21T02:22:35.883Z,26.83
2017-12-21T02:25:02.703Z,29.83
2017-12-21T02:27:29.570Z,26.00
2017-12-21T02:29:56.346Z,26.60
2017-12-21T02:32:23.188Z,24.20
2017-12-21T02:34:49.992Z,28.77
2017-12-21T02:37:16.870Z,28.60
2017-12-21T02:39:43.615Z,26.53
2017-12-21T02:42:10.412Z,28.60
2017-12-21T02:44:37.164Z,26.40
2017-12-21T02:47:03.996Z,26.57
2017-12-21T02:49:30.735Z,24.17
2017-12-21T02:51:57.534Z,22.80
2017-12-21T02:54:24.338Z,21.80
2017-12-21T02:56:51.115Z,24.80
2017-12-21T02:59:17.894Z,26.10
2017-12-21T03:01:44.814Z,27.27
2017-12-21T03:04:11.582Z,25.60
2017-12-21T03:06:38.312Z,23.27
2017-12-21T03:09:05.593Z,22.70
2017-12-21T03:11:32.467Z,21.57
2017-12-21T03:13:59.802Z,24.03
2017-12-21T03:16:26.626Z,22.03
2017-12-21T03:18:53.364Z,22.57
2017-12-21T03:21:20.106Z,24.40
2017-12-21T03:23:46.886Z,22.37
2017-12-21T03:26:13.634Z,22.57
2017-12-21T03:28:40.430Z,26.20
2017-12-21T03:31:07.221Z,23.40
2017-12-21T03:33:34.001Z,22.63
2017-12-21T03:36:00.787Z,22.33
2017-12-21T03:38:27.623Z,22.10
2017-12-21T03:40:54.379Z,20.03
2017-12-21T03:43:21.144Z,22.57
2017-12-21T03:45:47.914Z,21.63
2017-12-21T03:48:14.703Z,24.63
2017-12-21T03:50:41.470Z,23.90
2017-12-21T03:53:08.231Z,22.20
2017-12-21T03:55:34.974Z,20.80
2017-12-21T03:58:01.767Z,20.73
2017-12-21T04:00:28.529Z,21.63
2017-12-21T04:02:55.264Z,23.73
2017-12-21T04:05:22.028Z,23.27
2017-12-21T04:07:48.800Z,23.57
2017-12-21T04:10:15.549Z,22.70
2017-12-21T04:12:42.344Z,21.83
2017-12-21T04:15:09.085Z,22.90
2017-12-21T04:17:35.876Z,20.10
2017-12-21T04:20:02.664Z,20.67
2017-12-21T04:22:29.458Z,19.30
2017-12-21T04:24:56.970Z,20.30
2017-12-21T04:27:23.732Z,18.77
2017-12-21T04:29:50.534Z,23.13
2017-12-21T04:32:17.304Z,21.27
2017-12-21T04:34:44.157Z,23.80
2017-12-21T04:37:10.939Z,22.73
2017-12-21T04:39:38.971Z,20.10
2017-12-21T04:42:05.723Z,22.87
2017-12-21T04:44:32.541Z,22.20
2017-12-21T04:46:59.335Z,22.10
2017-12-21T04:49:26.145Z,25.37
2017-12-21T04:51:52.947Z,26.70
2017-12-21T04:54:19.758Z,22.13
2017-12-21T04:56:46.512Z,22.77
2017-12-21T04:59:13.291Z,24.30
2017-12-21T05:01:40.053Z,25.70
2017-12-21T05:04:06.824Z,26.90
2017-12-21T05:06:33.625Z,29.63
2017-12-21T05:09:00.399Z,25.47
2017-12-21T05:11:27.163Z,26.50
2017-12-21T05:13:53.956Z,22.43
2017-12-21T05:16:20.758Z,23.50
2017-12-21T05:18:47.531Z,25.57
2017-12-21T05:21:14.358Z,23.90
2017-12-21T05:23:41.151Z,29.53
2017-12-21T05:26:07.978Z,25.83
2017-12-21T05:28:34.762Z,30.60
2017-12-21T05:31:03.161Z,24.17
2017-12-21T05:33:29.914Z,26.33
2017-12-21T05:35:56.703Z,32.60
2017-12-21T05:38:23.499Z,28.33
2017-12-21T05:41:00.300Z,26.00
2017-12-21T05:43:27.120Z,25.07
2017-12-21T05:45:53.953Z,28.73
2017-12-21T05:48:20.825Z,27.80
2017-12-21T05:50:47.618Z,25.63
2017-12-21T05:53:14.426Z,24.97
2017-12-21T05:55:41.397Z,26.27
2017-12-21T05:58:08.193Z,26.23
2017-12-21T06:00:35.000Z,26.87
2017-12-21T06:03:01.826Z,27.60
2017-12-21T06:05:28.635Z,30.83
2017-12-21T06:07:55.484Z,32.03
2017-12-21T06:10:22.359Z,28.00
2017-12-21T06:12:49.130Z,26.10
2017-12-21T06:15:15.951Z,28.93
2017-12-21T06:17:42.785Z,27.00
2017-12-21T06:20:09.568Z,27.53
2017-12-21T06:22:36.447Z,21.13
2017-12-21T06:25:03.190Z,23.03
2017-12-21T06:27:30.136Z,22.40
2017-12-21T06:29:56.929Z,22.17
2017-12-21T06:32:23.732Z,20.87
2017-12-21T06:34:50.678Z,21.77
2017-12-21T06:37:17.449Z,21.93
2017-12-21T06:39:44.299Z,19.97
2017-12-21T06:42:11.067Z,21.00
2017-12-21T06:44:39.713Z,20.20
2017-12-21T06:47:06.796Z,24.33
2017-12-21T06:52:15.335Z,22.30
2017-12-21T06:54:42.139Z,23.83
2017-12-21T06:57:09.012Z,22.53
2017-12-21T06:59:35.828Z,21.13
2017-12-21T07:02:09.801Z,22.27
2017-12-21T07:04:43.707Z,23.73
2017-12-21T07:07:10.618Z,24.90
2017-12-21T07:09:37.444Z,27.97
2017-12-21T07:12:04.287Z,22.63
2017-12-21T07:14:31.143Z,27.30
2017-12-21T07:16:57.911Z,23.80
2017-12-21T07:19:24.922Z,23.77
2017-12-21T07:21:51.775Z,28.77
2017-12-21T07:24:18.600Z,26.10
2017-12-21T07:26:46.095Z,21.63
2017-12-21T07:29:12.925Z,25.30
2017-12-21T07:31:39.784Z,22.60
2017-12-21T07:34:14.524Z,27.60
2017-12-21T07:36:41.346Z,26.43
2017-12-21T07:39:09.020Z,26.13
2017-12-21T07:41:36.141Z,24.47
2017-12-21T07:44:05.104Z,25.87
2017-12-21T07:46:31.921Z,22.60
2017-12-21T07:48:58.718Z,23.50
2017-12-21T07:51:25.510Z,23.43
2017-12-21T07:53:52.352Z,23.53
2017-12-21T07:56:19.219Z,21.67
2017-12-21T07:58:46.048Z,22.50
2017-12-21T08:01:13.990Z,20.93
2017-12-21T08:03:41.002Z,22.03
2017-12-21T08:06:07.962Z,19.40
2017-12-21T08:08:35.307Z,22.60
2017-12-21T08:11:02.273Z,19.90
2017-12-21T08:13:29.053Z,25.90
2017-12-21T08:15:56.748Z,18.83
2017-12-21T08:18:23.817Z,19.07
2017-12-21T08:20:50.631Z,18.40
2017-12-21T08:23:20.286Z,19.00
2017-12-21T08:25:47.209Z,21.63
2017-12-21T08:28:14.124Z,19.67
2017-12-21T08:30:41.031Z,18.33
2017-12-21T08:33:07.950Z,19.73
2017-12-21T08:35:34.740Z,21.60
2017-12-21T08:38:01.514Z,18.80
2017-12-21T08:40:28.766Z,17.10
2017-12-21T08:42:55.590Z,19.07
2017-12-21T08:45:22.545Z,24.67
2017-12-21T08:47:49.411Z,19.70
2017-12-21T08:50:16.254Z,19.00
2017-12-21T08:52:43.076Z,19.00
2017-12-21T08:55:09.879Z,17.67
2017-12-21T08:57:37.308Z,17.87
2017-12-21T09:00:04.264Z,18.20
2017-12-21T09:02:31.071Z,19.23
2017-12-21T09:05:00.772Z,19.50
2017-12-21T09:07:27.588Z,21.03
2017-12-21T09:09:54.349Z,18.40
2017-12-21T09:12:21.190Z,17.53
2017-12-21T09:14:48.076Z,17.03
2017-12-21T09:17:14.930Z,17.30
2017-12-21T09:19:41.726Z,19.20
2017-12-21T09:22:09.483Z,17.80
2017-12-21T09:24:36.272Z,18.10
2017-12-21T09:27:03.218Z,18.10
2017-12-21T09:29:30.159Z,16.57
2017-12-21T09:31:57.591Z,18.23
2017-12-21T09:34:24.467Z,17.93
2017-12-21T09:36:51.295Z,18.20
2017-12-21T09:39:18.133Z,18.57
2017-12-21T09:41:44.929Z,19.77
2017-12-21T09:44:11.766Z,20.47
2017-12-21T09:46:38.573Z,18.53
2017-12-21T09:49:05.484Z,19.83
2017-12-21T09:51:32.312Z,20.00
2017-12-21T09:53:59.955Z,22.90
2017-12-21T09:56:26.892Z,19.07
2017-12-21T09:58:53.896Z,21.53
2017-12-21T10:01:25.507Z,19.23
2017-12-21T10:03:52.323Z,19.90
2017-12-21T10:06:19.281Z,20.60
2017-12-21T10:08:46.121Z,17.10
2017-12-21T10:11:13.111Z,18.03
2017-12-21T10:13:39.944Z,19.27
2017-12-21T10:16:06.781Z,17.87
2017-12-21T10:18:33.818Z,19.40
2017-12-21T10:21:02.462Z,19.00
2017-12-21T10:23:30.621Z,20.60
2017-12-21T10:26:07.143Z,18.83
2017-12-21T10:28:37.904Z,19.70
2017-12-21T10:31:04.919Z,18.07
2017-12-21T10:33:31.992Z,21.37
2017-12-21T10:38:33.080Z,19.40
2017-12-21T10:41:00.356Z,21.90
2017-12-21T10:43:30.655Z,24.57
2017-12-21T10:45:59.343Z,22.40
2017-12-21T10:48:26.609Z,19.77
2017-12-21T10:50:53.752Z,21.73
2017-12-21T10:55:58.463Z,17.70
2017-12-21T10:58:25.369Z,19.63
2017-12-21T11:00:52.204Z,18.63
2017-12-21T11:03:19.188Z,18.97
2017-12-21T11:05:46.192Z,19.77
2017-12-21T11:08:13.057Z,20.87
2017-12-21T11:10:40.124Z,19.47
2017-12-21T11:13:08.081Z,18.60
2017-12-21T11:15:35.033Z,17.90
2017-12-21T11:18:01.868Z,16.40
2017-12-21T11:20:34.134Z,19.30
2017-12-21T11:23:01.084Z,16.30
2017-12-21T11:25:30.765Z,21.03
2017-12-21T11:30:55.502Z,16.60
2017-12-21T11:33:28.147Z,15.13
2017-12-21T11:35:55.805Z,19.30
2017-12-21T11:38:23.658Z,17.27
2017-12-21T11:40:52.397Z,19.33
2017-12-21T11:43:19.578Z,15.17
2017-12-21T11:45:46.381Z,17.27
2017-12-21T11:48:13.250Z,19.77
2017-12-21T11:50:41.396Z,16.17
2017-12-21T11:53:09.353Z,17.67
2017-12-21T11:55:36.168Z,16.40
2017-12-21T11:58:03.070Z,16.47
2017-12-21T12:03:26.302Z,15.97
2017-12-21T12:11:50.568Z,18.67
2017-12-21T12:14:17.475Z,19.97
2017-12-21T12:16:44.590Z,16.57
2017-12-21T12:19:11.575Z,15.13
2017-12-21T12:21:38.472Z,15.17
2017-12-21T12:24:05.544Z,16.63
2017-12-21T12:26:32.431Z,16.07
2017-12-21T12:29:03.237Z,19.20
2017-12-21T12:31:30.208Z,15.40
2017-12-21T12:33:57.001Z,18.03
2017-12-21T12:36:23.966Z,15.60
2017-12-21T12:38:50.859Z,18.40
2017-12-21T12:41:21.720Z,16.10
2017-12-21T12:43:53.354Z,15.07
2017-12-21T12:46:20.201Z,14.70
2017-12-21T12:48:47.114Z,15.57
2017-12-21T12:51:13.949Z,15.27
2017-12-21T12:53:40.779Z,17.20
2017-12-21T12:56:07.559Z,14.10
2017-12-21T12:58:35.395Z,14.53
2017-12-21T13:01:02.221Z,16.00
2017-12-21T13:03:29.971Z,19.80
2017-12-21T13:05:56.793Z,16.77
2017-12-21T13:08:23.773Z,15.43
2017-12-21T13:10:50.555Z,16.27
2017-12-21T13:13:17.419Z,15.13
2017-12-21T13:15:44.242Z,16.97
2017-12-21T13:18:16.763Z,14.30
2017-12-21T13:20:43.637Z,14.63
2017-12-21T13:23:10.518Z,12.67
2017-12-21T13:25:37.444Z,13.67
2017-12-21T13:28:04.359Z,15.77
2017-12-21T13:30:31.181Z,14.17
2017-12-21T13:32:57.998Z,12.80
2017-12-21T13:35:24.885Z,15.10
2017-12-21T13:37:52.678Z,14.80
2017-12-21T13:40:19.498Z,15.73
2017-12-21T13:42:46.588Z,17.20
2017-12-21T13:45:15.372Z,12.07
2017-12-21T13:47:44.760Z,13.17
2017-12-21T13:50:11.666Z,16.30
2017-12-21T13:52:38.500Z,16.13
2017-12-21T13:55:06.382Z,13.57
2017-12-21T13:57:34.053Z,16.23
2017-12-21T14:00:01.068Z,14.00
2017-12-21T14:02:27.866Z,16.10
2017-12-21T14:04:56.573Z,15.50
2017-12-21T14:07:23.370Z,15.37
2017-12-21T14:09:50.275Z,16.00
2017-12-21T14:12:17.134Z,14.53
2017-12-21T14:14:43.935Z,17.53
2017-12-21T14:17:10.773Z,17.03
2017-12-21T14:19:37.753Z,16.70
2017-12-21T14:22:04.611Z,16.90
2017-12-21T14:24:31.394Z,17.43
2017-12-21T14:26:58.215Z,14.93
2017-12-21T14:29:25.399Z,21.30
2017-12-21T14:31:52.241Z,20.33
2017-12-21T14:34:19.053Z,19.07
2017-12-21T14:36:45.858Z,15.93
2017-12-21T14:39:12.686Z,16.70
2017-12-21T14:41:42.988Z,17.13
2017-12-21T14:44:09.807Z,16.80
2017-12-21T14:46:36.606Z,20.10
2017-12-21T14:49:03.444Z,24.43
2017-12-21T14:51:35.922Z,17.90
2017-12-21T14:54:02.797Z,17.03
2017-12-21T14:56:30.833Z,19.67
2017-12-21T14:58:57.639Z,18.10
2017-12-21T15:01:24.443Z,18.57
2017-12-21T15:03:51.263Z,15.00
2017-12-21T15:06:18.086Z,17.67
2017-12-21T15:08:44.912Z,14.77
2017-12-21T15:11:12.683Z,16.63
2017-12-21T15:13:39.570Z,15.40
2017-12-21T15:16:06.385Z,14.73
2017-12-21T15:18:34.250Z,15.07
2017-12-21T15:21:01.069Z,14.37
2017-12-21T15:23:27.924Z,17.33
2017-12-21T15:25:54.721Z,18.30
2017-12-21T15:28:21.551Z,15.77
2017-12-21T15:30:48.423Z,15.77
2017-12-21T15:33:15.210Z,16.07
2017-12-21T15:35:42.073Z,12.80
2017-12-21T15:38:08.902Z,17.40
2017-12-21T15:40:35.699Z,13.70
2017-12-21T15:43:03.382Z,12.40
2017-12-21T15:45:34.043Z,13.30
2017-12-21T15:48:02.338Z,15.03
2017-12-21T15:50:29.132Z,12.43
2017-12-21T15:52:55.987Z,11.37
2017-12-21T15:55:22.790Z,13.23
2017-12-21T15:57:49.747Z,13.80
2017-12-21T16:00:17.370Z,12.40
2017-12-21T16:02:44.938Z,14.50
2017-12-21T16:05:11.837Z,13.10
2017-12-21T16:07:38.649Z,11.73
2017-12-21T16:10:05.632Z,11.33
2017-12-21T16:12:32.490Z,12.10
2017-12-21T16:15:00.159Z,12.40
2017-12-21T16:17:27.138Z,15.23
2017-12-21T16:19:54.174Z,13.63
2017-12-21T16:22:21.154Z,12.57
2017-12-21T16:24:48.031Z,11.40
2017-12-21T16:27:14.955Z,13.40
2017-12-21T16:29:41.988Z,12.53
2017-12-21T16:32:08.859Z,14.60
2017-12-21T16:34:35.879Z,14.17
2017-12-21T16:37:02.863Z,13.10
2017-12-21T16:39:31.634Z,13.17
2017-12-21T16:41:59.101Z,13.40
2017-12-21T16:44:27.925Z,11.47
2017-12-21T16:46:54.779Z,11.67
2017-12-21T16:49:22.474Z,13.20
2017-12-21T16:51:49.433Z,14.67
2017-12-21T16:54:16.352Z,12.00
2017-12-21T16:56:45.074Z,11.97
2017-12-21T16:59:11.897Z,13.23
2017-12-21T17:01:39.677Z,13.27
2017-12-21T17:04:06.485Z,12.30
2017-12-21T17:06:33.316Z,13.20
2017-12-21T17:09:00.131Z,15.50
2017-12-21T17:11:29.299Z,14.40
2017-12-21T17:13:56.089Z,13.00
2017-12-21T17:16:23.060Z,15.73
2017-12-21T17:18:49.986Z,12.30
2017-12-21T17:21:16.857Z,14.30
2017-12-21T17:23:43.784Z,15.73
2017-12-21T17:26:11.463Z,13.47
2017-12-21T17:28:38.425Z,15.77
2017-12-21T17:31:05.252Z,14.00
2017-12-21T17:33:34.018Z,14.10
2017-12-21T17:36:00.942Z,14.03
2017-12-21T17:38:27.922Z,14.03
2017-12-21T17:40:55.082Z,15.23
2017-12-21T17:43:21.879Z,15.73
2017-12-21T17:45:48.717Z,11.90
2017-12-21T17:48:15.665Z,12.90
2017-12-21T17:50:43.419Z,12.47
2017-12-21T17:53:10.451Z,14.03
2017-12-21T17:55:38.033Z,15.10
2017-12-21T17:58:05.014Z,14.07
2017-12-21T18:00:31.920Z,12.30
2017-12-21T18:03:03.193Z,11.63
2017-12-21T18:05:32.850Z,12.00
2017-12-21T18:08:00.334Z,10.60
2017-12-21T18:10:27.267Z,11.47
2017-12-21T18:12:54.593Z,12.63
2017-12-21T18:15:21.506Z,11.30
2017-12-21T18:17:48.752Z,12.03
2017-12-21T18:20:15.616Z,12.33
2017-12-21T18:22:42.666Z,11.50
2017-12-21T18:25:10.152Z,12.17
2017-12-21T18:27:37.085Z,17.70
2017-12-21T18:30:09.642Z,14.43
2017-12-21T18:32:36.536Z,12.33
2017-12-21T18:35:03.334Z,14.87
2017-12-21T18:37:30.092Z,13.03
2017-12-21T18:39:56.961Z,14.03
2017-12-21T18:42:23.793Z,15.80
2017-12-21T18:44:50.633Z,13.80
2017-12-21T18:47:17.448Z,12.63
2017-12-21T18:49:45.041Z,13.40
2017-12-21T18:52:11.840Z,14.20
2017-12-21T18:54:38.649Z,15.40
2017-12-21T18:57:05.432Z,13.87
2017-12-21T18:59:32.492Z,14.80
2017-12-21T19:01:59.279Z,16.67
2017-12-21T19:04:26.124Z,14.23
2017-12-21T19:06:52.935Z,14.50
2017-12-21T19:09:19.701Z,17.17
2017-12-21T19:11:46.490Z,15.00
2017-12-21T19:14:13.278Z,15.13
2017-12-21T19:16:40.114Z,16.50
2017-12-21T19:19:12.504Z,17.30
2017-12-21T19:21:41.014Z,14.53
2017-12-21T19:24:08.030Z,17.27
2017-12-21T19:26:36.893Z,14.53
2017-12-21T19:29:03.858Z,17.00
2017-12-21T19:31:30.635Z,14.00
2017-12-21T19:33:57.422Z,16.20
2017-12-21T19:36:28.074Z,15.10
2017-12-21T19:38:55.220Z,12.93
2017-12-21T19:41:22.061Z,13.43
2017-12-21T19:43:48.874Z,14.20
2017-12-21T19:46:15.907Z,13.83
2017-12-21T19:48:43.216Z,14.10
2017-12-21T19:51:11.348Z,13.93
2017-12-21T19:53:38.384Z,12.67
2017-12-21T19:56:05.165Z,13.03
2017-12-21T19:58:31.927Z,13.67
2017-12-21T20:00:58.740Z,11.83
2017-12-21T20:03:26.452Z,13.77
2017-12-21T20:05:53.296Z,13.40
2017-12-21T20:08:20.081Z,12.03
2017-12-21T20:10:46.904Z,12.23
2017-12-21T20:13:13.717Z,12.67
2017-12-21T20:15:40.511Z,13.83
2017-12-21T20:18:07.482Z,14.07
2017-12-21T20:20:34.265Z,13.60
2017-12-21T20:23:01.086Z,12.93
2017-12-21T20:25:27.891Z,12.30
2017-12-21T20:27:54.690Z,11.37
2017-12-21T20:30:21.504Z,12.97
2017-12-21T20:32:48.327Z,13.40
2017-12-21T20:35:15.127Z,13.53
2017-12-21T20:37:41.985Z,15.87
2017-12-21T20:40:08.806Z,14.10
2017-12-21T20:42:35.558Z,13.67
2017-12-21T20:45:02.356Z,13.70
2017-12-21T20:47:29.159Z,12.87
2017-12-21T20:49:55.943Z,12.77
2017-12-21T20:52:22.722Z,13.77
2017-12-21T20:54:49.523Z,13.20
2017-12-21T20:57:16.380Z,13.40
2017-12-21T20:59:43.194Z,12.50
2017-12-21T21:02:10.027Z,12.00
2017-12-21T21:04:36.875Z,12.50
2017-12-21T21:07:03.682Z,14.50
2017-12-21T21:09:30.419Z,12.13
2017-12-21T21:11:57.898Z,13.17
2017-12-21T21:14:24.795Z,15.53
2017-12-21T21:16:52.740Z,12.23
2017-12-21T21:19:19.610Z,11.63
2017-12-21T21:21:46.440Z,12.47
2017-12-21T21:24:13.246Z,12.27
2017-12-21T21:26:40.051Z,12.20
2017-12-21T21:29:06.862Z,12.43
2017-12-21T21:31:33.673Z,12.17
2017-12-21T21:34:00.496Z,12.27
2017-12-21T21:36:27.288Z,12.83
2017-12-21T21:38:54.130Z,11.47
2017-12-21T21:41:21.544Z,10.87
2017-12-21T21:43:48.358Z,11.57
2017-12-21T21:46:15.160Z,10.87
2017-12-21T21:48:41.940Z,9.77
2017-12-21T21:51:08.730Z,10.93
2017-12-21T21:53:35.564Z,9.57
2017-12-21T21:56:02.385Z,10.70
2017-12-21T21:58:29.271Z,10.73
2017-12-21T22:00:56.032Z,9.53
2017-12-21T22:03:22.834Z,9.30
2017-12-21T22:05:49.604Z,9.30
2017-12-21T22:08:16.403Z,8.60
2017-12-21T22:10:43.188Z,8.57
2017-12-21T22:13:09.975Z,9.10
2017-12-21T22:15:36.798Z,9.43
2017-12-21T22:18:03.615Z,8.67
2017-12-21T22:20:30.381Z,8.37
2017-12-21T22:22:57.133Z,8.57
2017-12-21T22:25:23.960Z,8.53
2017-12-21T22:27:50.753Z,8.33
2017-12-21T22:30:17.525Z,8.80
2017-12-21T22:32:44.264Z,8.07
2017-12-21T22:35:11.062Z,8.83
2017-12-21T22:37:37.842Z,9.10
2017-12-21T22:40:04.617Z,9.60
2017-12-21T22:42:31.383Z,9.33
2017-12-21T22:44:58.279Z,10.53
2017-12-21T22:47:25.086Z,8.87
2017-12-21T22:49:51.833Z,9.33
2017-12-21T22:52:18.693Z,9.37
2017-12-21T22:54:46.204Z,9.13
2017-12-21T22:57:12.945Z,8.10
2017-12-21T22:59:39.724Z,9.00
2017-12-21T23:02:06.510Z,8.87
2017-12-21T23:04:33.270Z,9.37
2017-12-21T23:07:00.030Z,9.53
2017-12-21T23:09:26.775Z,9.50
2017-12-21T23:11:53.601Z,9.17
2017-12-21T23:14:20.409Z,8.90
2017-12-21T23:16:47.204Z,10.00
2017-12-21T23:19:14.003Z,11.30
2017-12-21T23:21:40.814Z,9.27
2017-12-21T23:24:07.585Z,9.80
2017-12-21T23:26:34.344Z,10.83
2017-12-21T23:29:01.116Z,11.07
2017-12-21T23:31:27.862Z,10.20
2017-12-21T23:33:54.652Z,10.20
2017-12-21T23:36:21.508Z,10.53
2017-12-21T23:38:48.238Z,9.57
2017-12-21T23:41:15.008Z,10.50
2017-12-21T23:43:41.832Z,10.47
2017-12-21T23:46:08.597Z,9.60
2017-12-21T23:48:35.333Z,9.57
2017-12-21T23:51:02.154Z,9.60
2017-12-21T23:53:28.895Z,9.97
2017-12-21T23:55:55.691Z,9.97
2017-12-21T23:58:22.495Z,10.20
